sensor_id;sensor_type;location;lat;lon;timestamp;P1;durP1;ratioP1;P2;durP2;ratioP2
19887;SDS011;10106;51.332;12.336;2023-03-01T06:39:31;9.20;;;4.93;;
19887;SDS011;10106;51.332;12.336;2023-03-01T06:41:57;9.90;;;5.27;;
19887;SDS011;10106;51.332;12.336;2023-03-01T06:44:23;15.37;;;6.00;;
19887;SDS011;10106;51.332;12.336;2023-03-01T06:46:49;10.50;;;5.77;;
19887;SDS011;10106;51.332;12.336;2023-03-01T06:49:15;15.10;;;6.90;;
19887;SDS011;10106;51.332;12.336;2023-03-01T06:51:42;11.80;;;6.50;;
19887;SDS011;10106;51.332;12.336;2023-03-01T06:54:09;8.70;;;5.37;;
19887;SDS011;10106;51.332;12.336;2023-03-01T06:56:35;9.47;;;6.10;;
19887;SDS011;10106;51.332;12.336;2023-03-01T06:59:01;11.07;;;6.70;;
19887;SDS011;10106;51.332;12.336;2023-03-01T07:01:28;10.20;;;6.00;;
19887;SDS011;10106;51.332;12.336;2023-03-01T07:03:54;10.23;;;6.57;;
19887;SDS011;10106;51.332;12.336;2023-03-01T07:06:20;10.17;;;6.40;;
19887;SDS011;10106;51.332;12.336;2023-03-01T07:08:46;12.03;;;6.20;;
19887;SDS011;10106;51.332;12.336;2023-03-01T07:11:12;16.63;;;6.93;;
19887;SDS011;10106;51.332;12.336;2023-03-01T07:13:38;15.33;;;7.20;;
19887;SDS011;10106;51.332;12.336;2023-03-01T07:16:04;12.30;;;5.63;;
19887;SDS011;10106;51.332;12.336;2023-03-01T07:18:30;17.77;;;7.30;;
19887;SDS011;10106;51.332;12.336;2023-03-01T07:20:56;11.37;;;5.83;;
19887;SDS011;10106;51.332;12.336;2023-03-01T07:23:21;12.20;;;6.93;;
19887;SDS011;10106;51.332;12.336;2023-03-01T07:25:56;10.97;;;7.53;;
19887;SDS011;10106;51.332;12.336;2023-03-01T07:30:48;14.15;;;8.57;;
19887;SDS011;10106;51.332;12.336;2023-03-01T07:33:13;15.80;;;8.00;;
19887;SDS011;10106;51.332;12.336;2023-03-01T07:35:39;12.17;;;6.80;;
19887;SDS011;10106;51.332;12.336;2023-03-01T07:38:05;13.10;;;7.30;;
19887;SDS011;10106;51.332;12.336;2023-03-01T07:40:30;15.33;;;8.10;;
19887;SDS011;10106;51.332;12.336;2023-03-01T07:42:56;14.63;;;8.70;;
19887;SDS011;10106;51.332;12.336;2023-03-01T07:45:22;16.80;;;8.30;;
19887;SDS011;10106;51.332;12.336;2023-03-01T07:47:49;17.50;;;8.87;;
19887;SDS011;10106;51.332;12.336;2023-03-01T07:50:16;16.30;;;8.23;;
19887;SDS011;10106;51.332;12.336;2023-03-01T07:52:41;14.40;;;9.00;;
19887;SDS011;10106;51.332;12.336;2023-03-01T07:55:09;16.97;;;9.17;;
19887;SDS011;10106;51.332;12.336;2023-03-01T07:57:35;13.73;;;8.20;;
19887;SDS011;10106;51.332;12.336;2023-03-01T08:00:01;17.37;;;9.17;;
19887;SDS011;10106;51.332;12.336;2023-03-01T08:02:26;20.40;;;9.60;;
19887;SDS011;10106;51.332;12.336;2023-03-01T08:04:52;16.40;;;8.60;;
19887;SDS011;10106;51.332;12.336;2023-03-01T08:07:18;19.13;;;10.50;;
19887;SDS011;10106;51.332;12.336;2023-03-01T08:09:43;22.67;;;10.70;;
19887;SDS011;10106;51.332;12.336;2023-03-01T08:12:09;17.50;;;9.57;;
19887;SDS011;10106;51.332;12.336;2023-03-01T08:14:35;22.43;;;10.37;;
19887;SDS011;10106;51.332;12.336;2023-03-01T08:17:01;22.10;;;10.53;;
19887;SDS011;10106;51.332;12.336;2023-03-01T08:19:28;16.90;;;9.13;;
19887;SDS011;10106;51.332;12.336;2023-03-01T08:21:54;23.07;;;9.40;;
19887;SDS011;10106;51.332;12.336;2023-03-01T08:24:20;19.33;;;9.70;;
19887;SDS011;10106;51.332;12.336;2023-03-01T08:26:45;20.43;;;9.80;;
19887;SDS011;10106;51.332;12.336;2023-03-01T08:29:11;21.63;;;9.70;;
19887;SDS011;10106;51.332;12.336;2023-03-01T08:31:38;21.13;;;10.33;;
19887;SDS011;10106;51.332;12.336;2023-03-01T08:34:06;14.87;;;8.67;;
19887;SDS011;10106;51.332;12.336;2023-03-01T08:36:38;16.40;;;9.40;;
19887;SDS011;10106;51.332;12.336;2023-03-01T08:39:09;20.97;;;11.20;;
19887;SDS011;10106;51.332;12.336;2023-03-01T08:41:39;19.73;;;10.23;;
19887;SDS011;10106;51.332;12.336;2023-03-01T08:44:05;20.27;;;11.33;;
19887;SDS011;10106;51.332;12.336;2023-03-01T08:46:32;21.07;;;10.80;;
19887;SDS011;10106;51.332;12.336;2023-03-01T08:49:02;15.57;;;10.33;;
19887;SDS011;10106;51.332;12.336;2023-03-01T08:51:30;19.87;;;10.70;;
19887;SDS011;10106;51.332;12.336;2023-03-01T08:53:57;28.10;;;10.60;;
19887;SDS011;10106;51.332;12.336;2023-03-01T08:56:23;17.83;;;10.20;;
19887;SDS011;10106;51.332;12.336;2023-03-01T08:58:49;19.27;;;10.93;;
19887;SDS011;10106;51.332;12.336;2023-03-01T09:01:15;19.57;;;10.53;;
19887;SDS011;10106;51.332;12.336;2023-03-01T09:03:42;20.03;;;10.73;;
19887;SDS011;10106;51.332;12.336;2023-03-01T09:06:09;22.43;;;10.87;;
19887;SDS011;10106;51.332;12.336;2023-03-01T09:08:39;20.47;;;10.70;;
19887;SDS011;10106;51.332;12.336;2023-03-01T09:11:07;21.20;;;11.13;;
19887;SDS011;10106;51.332;12.336;2023-03-01T09:13:34;22.20;;;10.50;;
19887;SDS011;10106;51.332;12.336;2023-03-01T09:16:01;17.90;;;10.40;;
19887;SDS011;10106;51.332;12.336;2023-03-01T09:18:28;20.47;;;10.80;;
19887;SDS011;10106;51.332;12.336;2023-03-01T09:21:00;19.57;;;10.13;;
19887;SDS011;10106;51.332;12.336;2023-03-01T09:23:32;23.17;;;10.30;;
19887;SDS011;10106;51.332;12.336;2023-03-01T09:26:02;23.43;;;10.50;;
19887;SDS011;10106;51.332;12.336;2023-03-01T09:28:28;20.07;;;10.87;;
19887;SDS011;10106;51.332;12.336;2023-03-01T09:30:57;20.43;;;11.13;;
19887;SDS011;10106;51.332;12.336;2023-03-01T09:33:23;17.60;;;9.43;;
19887;SDS011;10106;51.332;12.336;2023-03-01T09:35:49;18.17;;;9.90;;
19887;SDS011;10106;51.332;12.336;2023-03-01T09:38:14;21.60;;;9.60;;
19887;SDS011;10106;51.332;12.336;2023-03-01T09:40:43;18.17;;;10.03;;
19887;SDS011;10106;51.332;12.336;2023-03-01T09:43:16;21.30;;;8.97;;
19887;SDS011;10106;51.332;12.336;2023-03-01T09:45:48;17.67;;;9.80;;
19887;SDS011;10106;51.332;12.336;2023-03-01T09:48:18;17.07;;;8.90;;
19887;SDS011;10106;51.332;12.336;2023-03-01T09:50:48;20.57;;;9.90;;
19887;SDS011;10106;51.332;12.336;2023-03-01T09:53:18;29.83;;;9.30;;
19887;SDS011;10106;51.332;12.336;2023-03-01T09:56:50;21.23;;;10.40;;
19887;SDS011;10106;51.332;12.336;2023-03-01T09:59:39;21.53;;;9.93;;
19887;SDS011;10106;51.332;12.336;2023-03-01T10:01:38;14.33;;;9.10;;
19887;SDS011;10106;51.332;12.336;2023-03-01T10:10:37;11.80;;;7.20;;
19887;SDS011;10106;51.332;12.336;2023-03-01T10:13:10;16.67;;;7.57;;
19887;SDS011;10106;51.332;12.336;2023-03-01T10:16:05;17.43;;;8.07;;
19887;SDS011;10106;51.332;12.336;2023-03-01T10:18:55;22.53;;;8.37;;
19887;SDS011;10106;51.332;12.336;2023-03-01T10:21:25;18.60;;;7.33;;
19887;SDS011;10106;51.332;12.336;2023-03-01T10:23:53;12.87;;;6.87;;
19887;SDS011;10106;51.332;12.336;2023-03-01T10:26:25;26.63;;;8.70;;
19887;SDS011;10106;51.332;12.336;2023-03-01T10:29:11;14.67;;;7.60;;
19887;SDS011;10106;51.332;12.336;2023-03-01T10:31:39;17.30;;;8.10;;
19887;SDS011;10106;51.332;12.336;2023-03-01T10:34:15;19.87;;;6.60;;
19887;SDS011;10106;51.332;12.336;2023-03-01T10:36:44;20.90;;;8.63;;
19887;SDS011;10106;51.332;12.336;2023-03-01T10:39:15;18.50;;;7.63;;
19887;SDS011;10106;51.332;12.336;2023-03-01T10:42:25;9.90;;;5.90;;
19887;SDS011;10106;51.332;12.336;2023-03-01T10:44:47;14.53;;;6.43;;
19887;SDS011;10106;51.332;12.336;2023-03-01T10:47:23;11.87;;;5.90;;
19887;SDS011;10106;51.332;12.336;2023-03-01T10:49:57;11.63;;;5.37;;
19887;SDS011;10106;51.332;12.336;2023-03-01T10:52:30;12.97;;;6.73;;
19887;SDS011;10106;51.332;12.336;2023-03-01T10:55:02;9.53;;;6.80;;
19887;SDS011;10106;51.332;12.336;2023-03-01T10:57:29;15.10;;;7.20;;
19887;SDS011;10106;51.332;12.336;2023-03-01T11:00:23;26.23;;;7.90;;
19887;SDS011;10106;51.332;12.336;2023-03-01T11:05:23;11.20;;;5.60;;
19887;SDS011;10106;51.332;12.336;2023-03-01T11:07:53;13.13;;;6.70;;
19887;SDS011;10106;51.332;12.336;2023-03-01T11:10:34;13.63;;;6.90;;
19887;SDS011;10106;51.332;12.336;2023-03-01T11:13:08;14.70;;;6.50;;
19887;SDS011;10106;51.332;12.336;2023-03-01T11:15:42;12.60;;;7.60;;
19887;SDS011;10106;51.332;12.336;2023-03-01T11:18:23;10.00;;;5.97;;
19887;SDS011;10106;51.332;12.336;2023-03-01T11:20:50;12.23;;;7.00;;
19887;SDS011;10106;51.332;12.336;2023-03-01T11:23:23;21.93;;;8.80;;
19887;SDS011;10106;51.332;12.336;2023-03-01T11:25:58;11.20;;;7.10;;
19887;SDS011;10106;51.332;12.336;2023-03-01T11:28:31;15.17;;;6.40;;
19887;SDS011;10106;51.332;12.336;2023-03-01T11:31:03;16.77;;;7.83;;
19887;SDS011;10106;51.332;12.336;2023-03-01T11:36:46;15.30;;;8.17;;
19887;SDS011;10106;51.332;12.336;2023-03-01T11:45:30;13.37;;;6.23;;
19887;SDS011;10106;51.332;12.336;2023-03-01T11:51:00;11.13;;;6.43;;
19887;SDS011;10106;51.332;12.336;2023-03-01T11:59:19;14.80;;;6.00;;
19887;SDS011;10106;51.332;12.336;2023-03-01T12:08:24;13.03;;;6.33;;
19887;SDS011;10106;51.332;12.336;2023-03-01T12:11:01;14.60;;;7.30;;
19887;SDS011;10106;51.332;12.336;2023-03-01T12:21:54;21.70;;;8.03;;
19887;SDS011;10106;51.332;12.336;2023-03-01T12:50:41;12.53;;;6.83;;
19887;SDS011;10106;51.332;12.336;2023-03-01T12:59:01;12.33;;;6.00;;
19887;SDS011;10106;51.332;12.336;2023-03-01T13:01:42;9.63;;;5.70;;
19887;SDS011;10106;51.332;12.336;2023-03-01T13:04:40;17.23;;;6.50;;
19887;SDS011;10106;51.332;12.336;2023-03-01T13:20:20;12.47;;;6.30;;
19887;SDS011;10106;51.332;12.336;2023-03-01T13:23:00;27.03;;;6.80;;
19887;SDS011;10106;51.332;12.336;2023-03-01T13:26:19;21.97;;;7.23;;
19887;SDS011;10106;51.332;12.336;2023-03-01T13:33:54;10.23;;;6.03;;
19887;SDS011;10106;51.332;12.336;2023-03-01T13:47:31;15.93;;;6.77;;
19887;SDS011;10106;51.332;12.336;2023-03-01T13:49:50;8.60;;;4.97;;
19887;SDS011;10106;51.332;12.336;2023-03-01T13:52:37;10.87;;;5.67;;
19887;SDS011;10106;51.332;12.336;2023-03-01T13:57:45;13.63;;;5.93;;
19887;SDS011;10106;51.332;12.336;2023-03-01T14:03:13;11.60;;;5.83;;
19887;SDS011;10106;51.332;12.336;2023-03-01T14:05:43;9.10;;;5.17;;
19887;SDS011;10106;51.332;12.336;2023-03-01T14:08:31;11.23;;;5.03;;
19887;SDS011;10106;51.332;12.336;2023-03-01T14:19:29;12.37;;;5.27;;
19887;SDS011;10106;51.332;12.336;2023-03-01T14:22:18;11.57;;;5.47;;
19887;SDS011;10106;51.332;12.336;2023-03-01T14:25:00;9.53;;;5.53;;
19887;SDS011;10106;51.332;12.336;2023-03-01T14:27:30;8.83;;;4.27;;
19887;SDS011;10106;51.332;12.336;2023-03-01T14:30:10;7.50;;;4.47;;
19887;SDS011;10106;51.332;12.336;2023-03-01T14:32:39;8.80;;;5.00;;
19887;SDS011;10106;51.332;12.336;2023-03-01T14:35:21;8.70;;;5.20;;
19887;SDS011;10106;51.332;12.336;2023-03-01T14:37:52;10.47;;;3.77;;
19887;SDS011;10106;51.332;12.336;2023-03-01T14:40:26;14.03;;;4.03;;
19887;SDS011;10106;51.332;12.336;2023-03-01T14:42:53;3.23;;;2.40;;
19887;SDS011;10106;51.332;12.336;2023-03-01T14:45:21;9.90;;;4.03;;
19887;SDS011;10106;51.332;12.336;2023-03-01T14:47:49;10.87;;;4.47;;
19887;SDS011;10106;51.332;12.336;2023-03-01T14:52:59;6.20;;;4.30;;
19887;SDS011;10106;51.332;12.336;2023-03-01T14:57:59;4.43;;;3.53;;
19887;SDS011;10106;51.332;12.336;2023-03-01T15:00:29;11.27;;;5.40;;
19887;SDS011;10106;51.332;12.336;2023-03-01T15:02:56;9.57;;;3.77;;
19887;SDS011;10106;51.332;12.336;2023-03-01T15:05:34;8.07;;;3.90;;
19887;SDS011;10106;51.332;12.336;2023-03-01T15:08:01;9.60;;;3.90;;
19887;SDS011;10106;51.332;12.336;2023-03-01T15:10:29;5.03;;;3.10;;
19887;SDS011;10106;51.332;12.336;2023-03-01T15:13:09;8.60;;;4.60;;
19887;SDS011;10106;51.332;12.336;2023-03-01T15:15:43;5.57;;;3.33;;
19887;SDS011;10106;51.332;12.336;2023-03-01T15:18:21;8.23;;;3.80;;
19887;SDS011;10106;51.332;12.336;2023-03-01T15:20:51;7.60;;;3.90;;
19887;SDS011;10106;51.332;12.336;2023-03-01T15:23:21;7.63;;;4.80;;
19887;SDS011;10106;51.332;12.336;2023-03-01T15:25:52;8.67;;;4.80;;
19887;SDS011;10106;51.332;12.336;2023-03-01T15:28:26;8.97;;;3.80;;
19887;SDS011;10106;51.332;12.336;2023-03-01T15:30:59;5.70;;;3.70;;
19887;SDS011;10106;51.332;12.336;2023-03-01T15:33:29;9.70;;;4.60;;
19887;SDS011;10106;51.332;12.336;2023-03-01T15:35:59;11.77;;;4.60;;
19887;SDS011;10106;51.332;12.336;2023-03-01T15:38:53;6.73;;;3.60;;
19887;SDS011;10106;51.332;12.336;2023-03-01T15:41:37;5.90;;;3.47;;
19887;SDS011;10106;51.332;12.336;2023-03-01T15:44:23;9.00;;;3.33;;
19887;SDS011;10106;51.332;12.336;2023-03-01T15:46:51;5.67;;;3.77;;
19887;SDS011;10106;51.332;12.336;2023-03-01T15:54:54;8.40;;;3.73;;
19887;SDS011;10106;51.332;12.336;2023-03-01T15:57:21;7.47;;;4.50;;
19887;SDS011;10106;51.332;12.336;2023-03-01T15:59:47;6.00;;;3.97;;
19887;SDS011;10106;51.332;12.336;2023-03-01T16:02:14;4.37;;;2.87;;
19887;SDS011;10106;51.332;12.336;2023-03-01T16:04:39;7.90;;;3.83;;
19887;SDS011;10106;51.332;12.336;2023-03-01T16:07:05;9.67;;;4.13;;
19887;SDS011;10106;51.332;12.336;2023-03-01T16:09:31;5.43;;;3.90;;
19887;SDS011;10106;51.332;12.336;2023-03-01T16:11:57;13.60;;;4.20;;
19887;SDS011;10106;51.332;12.336;2023-03-01T16:14:23;2.83;;;2.60;;
19887;SDS011;10106;51.332;12.336;2023-03-01T16:16:49;4.10;;;3.30;;
19887;SDS011;10106;51.332;12.336;2023-03-01T16:19:15;6.40;;;4.03;;
19887;SDS011;10106;51.332;12.336;2023-03-01T16:21:41;8.07;;;4.57;;
19887;SDS011;10106;51.332;12.336;2023-03-01T16:24:11;6.60;;;3.43;;
19887;SDS011;10106;51.332;12.336;2023-03-01T16:26:40;8.63;;;4.07;;
19887;SDS011;10106;51.332;12.336;2023-03-01T16:29:07;7.67;;;4.23;;
19887;SDS011;10106;51.332;12.336;2023-03-01T16:31:32;8.70;;;4.57;;
19887;SDS011;10106;51.332;12.336;2023-03-01T16:33:58;8.07;;;4.10;;
19887;SDS011;10106;51.332;12.336;2023-03-01T16:36:25;7.70;;;4.03;;
19887;SDS011;10106;51.332;12.336;2023-03-01T16:38:53;6.93;;;4.03;;
19887;SDS011;10106;51.332;12.336;2023-03-01T16:41:21;8.80;;;5.20;;
19887;SDS011;10106;51.332;12.336;2023-03-01T16:43:47;7.13;;;4.10;;
19887;SDS011;10106;51.332;12.336;2023-03-01T16:46:19;11.53;;;3.70;;
19887;SDS011;10106;51.332;12.336;2023-03-01T16:48:50;8.73;;;4.47;;
19887;SDS011;10106;51.332;12.336;2023-03-01T16:51:16;10.43;;;4.37;;
19887;SDS011;10106;51.332;12.336;2023-03-01T16:53:43;6.50;;;3.63;;
19887;SDS011;10106;51.332;12.336;2023-03-01T16:56:10;9.20;;;4.33;;
19887;SDS011;10106;51.332;12.336;2023-03-01T16:58:37;7.60;;;3.80;;
19887;SDS011;10106;51.332;12.336;2023-03-01T17:01:08;10.03;;;3.70;;
19887;SDS011;10106;51.332;12.336;2023-03-01T17:03:40;6.87;;;3.43;;
19887;SDS011;10106;51.332;12.336;2023-03-01T17:06:08;6.00;;;4.17;;
19887;SDS011;10106;51.332;12.336;2023-03-01T17:08:36;9.83;;;4.07;;
19887;SDS011;10106;51.332;12.336;2023-03-01T17:11:03;7.53;;;3.97;;
19887;SDS011;10106;51.332;12.336;2023-03-01T17:13:29;8.37;;;4.47;;
19887;SDS011;10106;51.332;12.336;2023-03-01T17:15:55;6.87;;;2.90;;
19887;SDS011;10106;51.332;12.336;2023-03-01T17:18:20;6.77;;;3.60;;
19887;SDS011;10106;51.332;12.336;2023-03-01T17:20:46;5.43;;;3.50;;
19887;SDS011;10106;51.332;12.336;2023-03-01T17:23:12;10.13;;;4.23;;
19887;SDS011;10106;51.332;12.336;2023-03-01T17:25:41;16.43;;;5.13;;
19887;SDS011;10106;51.332;12.336;2023-03-01T17:28:11;6.03;;;2.80;;
19887;SDS011;10106;51.332;12.336;2023-03-01T17:30:38;6.93;;;3.90;;
19887;SDS011;10106;51.332;12.336;2023-03-01T17:33:06;14.67;;;4.03;;
19887;SDS011;10106;51.332;12.336;2023-03-01T17:35:32;6.20;;;3.30;;
19887;SDS011;10106;51.332;12.336;2023-03-01T17:38:02;10.13;;;5.63;;
19887;SDS011;10106;51.332;12.336;2023-03-01T17:40:28;11.33;;;4.60;;
19887;SDS011;10106;51.332;12.336;2023-03-01T17:42:55;12.53;;;4.60;;
19887;SDS011;10106;51.332;12.336;2023-03-01T17:45:21;8.33;;;4.30;;
19887;SDS011;10106;51.332;12.336;2023-03-01T17:47:47;10.63;;;4.67;;
19887;SDS011;10106;51.332;12.336;2023-03-01T17:50:13;7.90;;;4.57;;
19887;SDS011;10106;51.332;12.336;2023-03-01T17:52:39;5.17;;;3.93;;
19887;SDS011;10106;51.332;12.336;2023-03-01T17:55:06;5.80;;;4.20;;
19887;SDS011;10106;51.332;12.336;2023-03-01T17:57:32;7.30;;;4.07;;
19887;SDS011;10106;51.332;12.336;2023-03-01T17:59:58;10.53;;;4.60;;
19887;SDS011;10106;51.332;12.336;2023-03-01T18:02:24;11.27;;;4.60;;
19887;SDS011;10106;51.332;12.336;2023-03-01T18:04:51;7.97;;;4.30;;
19887;SDS011;10106;51.332;12.336;2023-03-01T18:07:21;5.43;;;3.33;;
19887;SDS011;10106;51.332;12.336;2023-03-01T18:09:46;6.17;;;4.13;;
19887;SDS011;10106;51.332;12.336;2023-03-01T18:12:12;3.67;;;3.27;;
19887;SDS011;10106;51.332;12.336;2023-03-01T18:14:38;9.37;;;3.50;;
19887;SDS011;10106;51.332;12.336;2023-03-01T18:17:04;13.90;;;5.20;;
19887;SDS011;10106;51.332;12.336;2023-03-01T18:19:35;11.17;;;4.87;;
19887;SDS011;10106;51.332;12.336;2023-03-01T18:22:09;8.17;;;4.03;;
19887;SDS011;10106;51.332;12.336;2023-03-01T18:24:37;3.67;;;3.33;;
19887;SDS011;10106;51.332;12.336;2023-03-01T18:27:03;6.87;;;4.10;;
19887;SDS011;10106;51.332;12.336;2023-03-01T18:29:29;8.67;;;4.17;;
19887;SDS011;10106;51.332;12.336;2023-03-01T18:31:54;10.67;;;4.20;;
19887;SDS011;10106;51.332;12.336;2023-03-01T18:34:20;6.63;;;4.73;;
19887;SDS011;10106;51.332;12.336;2023-03-01T18:36:46;9.07;;;4.70;;
19887;SDS011;10106;51.332;12.336;2023-03-01T18:39:12;8.37;;;4.07;;
19887;SDS011;10106;51.332;12.336;2023-03-01T18:41:39;7.50;;;4.80;;
19887;SDS011;10106;51.332;12.336;2023-03-01T18:44:05;6.93;;;3.63;;
19887;SDS011;10106;51.332;12.336;2023-03-01T18:46:32;7.80;;;4.60;;
19887;SDS011;10106;51.332;12.336;2023-03-01T18:49:00;8.77;;;4.17;;
19887;SDS011;10106;51.332;12.336;2023-03-01T18:51:27;12.03;;;4.60;;
19887;SDS011;10106;51.332;12.336;2023-03-01T18:53:54;4.03;;;3.57;;
19887;SDS011;10106;51.332;12.336;2023-03-01T18:56:22;7.70;;;3.47;;
19887;SDS011;10106;51.332;12.336;2023-03-01T18:58:49;9.53;;;4.90;;
19887;SDS011;10106;51.332;12.336;2023-03-01T19:01:19;6.70;;;4.47;;
19887;SDS011;10106;51.332;12.336;2023-03-01T19:03:47;9.73;;;4.70;;
19887;SDS011;10106;51.332;12.336;2023-03-01T19:06:13;11.20;;;4.77;;
19887;SDS011;10106;51.332;12.336;2023-03-01T19:08:39;6.20;;;4.30;;
19887;SDS011;10106;51.332;12.336;2023-03-01T19:11:06;12.50;;;5.00;;
19887;SDS011;10106;51.332;12.336;2023-03-01T19:13:33;15.00;;;5.20;;
19887;SDS011;10106;51.332;12.336;2023-03-01T19:16:11;9.23;;;4.93;;
19887;SDS011;10106;51.332;12.336;2023-03-01T19:18:39;10.93;;;4.70;;
19887;SDS011;10106;51.332;12.336;2023-03-01T19:21:06;12.10;;;4.30;;
19887;SDS011;10106;51.332;12.336;2023-03-01T19:23:34;7.77;;;4.00;;
19887;SDS011;10106;51.332;12.336;2023-03-01T19:28:26;6.63;;;4.50;;
19887;SDS011;10106;51.332;12.336;2023-03-01T19:31:02;9.68;;;5.00;;
19887;SDS011;10106;51.332;12.336;2023-03-01T19:33:31;7.83;;;4.00;;
19887;SDS011;10106;51.332;12.336;2023-03-01T19:35:58;8.90;;;4.40;;
19887;SDS011;10106;51.332;12.336;2023-03-01T19:38:25;22.67;;;7.10;;
19887;SDS011;10106;51.332;12.336;2023-03-01T19:40:51;7.90;;;4.30;;
19887;SDS011;10106;51.332;12.336;2023-03-01T19:43:17;8.67;;;4.30;;
19887;SDS011;10106;51.332;12.336;2023-03-01T19:45:43;6.83;;;3.73;;
19887;SDS011;10106;51.332;12.336;2023-03-01T19:48:10;10.03;;;3.53;;
19887;SDS011;10106;51.332;12.336;2023-03-01T19:50:36;5.93;;;3.53;;
19887;SDS011;10106;51.332;12.336;2023-03-01T19:53:02;7.53;;;3.23;;
19887;SDS011;10106;51.332;12.336;2023-03-01T19:55:28;3.37;;;3.07;;
19887;SDS011;10106;51.332;12.336;2023-03-01T19:57:54;12.30;;;4.93;;
19887;SDS011;10106;51.332;12.336;2023-03-01T20:00:20;7.20;;;4.13;;
19887;SDS011;10106;51.332;12.336;2023-03-01T20:02:46;15.37;;;4.27;;
19887;SDS011;10106;51.332;12.336;2023-03-01T20:05:13;7.70;;;3.73;;
19887;SDS011;10106;51.332;12.336;2023-03-01T20:07:38;5.73;;;2.47;;
19887;SDS011;10106;51.332;12.336;2023-03-01T20:10:06;5.90;;;3.23;;
19887;SDS011;10106;51.332;12.336;2023-03-01T20:12:34;8.43;;;3.40;;
19887;SDS011;10106;51.332;12.336;2023-03-01T20:15:01;6.90;;;3.30;;
19887;SDS011;10106;51.332;12.336;2023-03-01T20:17:27;15.03;;;3.50;;
19887;SDS011;10106;51.332;12.336;2023-03-01T20:19:52;6.07;;;3.40;;
19887;SDS011;10106;51.332;12.336;2023-03-01T20:22:21;10.53;;;4.90;;
19887;SDS011;10106;51.332;12.336;2023-03-01T20:24:47;7.03;;;3.50;;
19887;SDS011;10106;51.332;12.336;2023-03-01T20:27:12;6.07;;;3.27;;
19887;SDS011;10106;51.332;12.336;2023-03-01T20:29:40;4.10;;;3.10;;
19887;SDS011;10106;51.332;12.336;2023-03-01T20:32:06;8.00;;;3.40;;
19887;SDS011;10106;51.332;12.336;2023-03-01T20:34:32;10.03;;;4.10;;
19887;SDS011;10106;51.332;12.336;2023-03-01T20:37:03;5.43;;;4.17;;
19887;SDS011;10106;51.332;12.336;2023-03-01T20:39:28;17.17;;;4.20;;
19887;SDS011;10106;51.332;12.336;2023-03-01T20:41:54;3.63;;;2.83;;
19887;SDS011;10106;51.332;12.336;2023-03-01T20:44:20;6.37;;;3.73;;
19887;SDS011;10106;51.332;12.336;2023-03-01T20:46:45;15.80;;;3.77;;
19887;SDS011;10106;51.332;12.336;2023-03-01T20:49:11;6.47;;;3.53;;
19887;SDS011;10106;51.332;12.336;2023-03-01T20:51:37;9.83;;;3.87;;
19887;SDS011;10106;51.332;12.336;2023-03-01T20:54:05;5.13;;;3.43;;
19887;SDS011;10106;51.332;12.336;2023-03-01T20:56:31;9.67;;;4.20;;
19887;SDS011;10106;51.332;12.336;2023-03-01T20:58:56;16.93;;;4.53;;
19887;SDS011;10106;51.332;12.336;2023-03-01T21:01:22;4.27;;;2.83;;
19887;SDS011;10106;51.332;12.336;2023-03-01T21:03:48;6.77;;;2.87;;
19887;SDS011;10106;51.332;12.336;2023-03-01T21:06:14;16.63;;;3.80;;
19887;SDS011;10106;51.332;12.336;2023-03-01T21:08:40;5.50;;;3.60;;
19887;SDS011;10106;51.332;12.336;2023-03-01T21:11:06;8.03;;;3.77;;
19887;SDS011;10106;51.332;12.336;2023-03-01T21:13:32;6.77;;;3.87;;
19887;SDS011;10106;51.332;12.336;2023-03-01T21:15:58;6.27;;;3.17;;
19887;SDS011;10106;51.332;12.336;2023-03-01T21:18:32;14.50;;;4.20;;
19887;SDS011;10106;51.332;12.336;2023-03-01T21:21:04;12.23;;;4.30;;
19887;SDS011;10106;51.332;12.336;2023-03-01T21:23:32;5.17;;;3.13;;
19887;SDS011;10106;51.332;12.336;2023-03-01T21:26:06;8.70;;;3.90;;
19887;SDS011;10106;51.332;12.336;2023-03-01T21:28:36;10.95;;;4.32;;
19887;SDS011;10106;51.332;12.336;2023-03-01T21:31:07;7.30;;;3.80;;
19887;SDS011;10106;51.332;12.336;2023-03-01T21:33:39;7.63;;;3.73;;
19887;SDS011;10106;51.332;12.336;2023-03-01T21:36:08;11.47;;;4.10;;
19887;SDS011;10106;51.332;12.336;2023-03-01T21:38:35;11.00;;;3.93;;
19887;SDS011;10106;51.332;12.336;2023-03-01T21:41:09;8.33;;;3.67;;
19887;SDS011;10106;51.332;12.336;2023-03-01T21:43:37;5.93;;;3.80;;
19887;SDS011;10106;51.332;12.336;2023-03-01T21:46:05;11.10;;;4.03;;
19887;SDS011;10106;51.332;12.336;2023-03-01T21:48:34;9.00;;;4.70;;
19887;SDS011;10106;51.332;12.336;2023-03-01T21:51:00;7.27;;;4.27;;
19887;SDS011;10106;51.332;12.336;2023-03-01T21:53:28;8.90;;;4.47;;
19887;SDS011;10106;51.332;12.336;2023-03-01T21:55:57;23.43;;;5.57;;
19887;SDS011;10106;51.332;12.336;2023-03-01T21:58:23;6.33;;;4.20;;
19887;SDS011;10106;51.332;12.336;2023-03-01T22:00:53;4.87;;;3.07;;
19887;SDS011;10106;51.332;12.336;2023-03-01T22:03:19;6.10;;;4.37;;
19887;SDS011;10106;51.332;12.336;2023-03-01T22:05:55;10.17;;;4.00;;
19887;SDS011;10106;51.332;12.336;2023-03-01T22:08:23;5.10;;;3.67;;
19887;SDS011;10106;51.332;12.336;2023-03-01T22:10:49;8.80;;;4.53;;
19887;SDS011;10106;51.332;12.336;2023-03-01T22:13:16;5.03;;;3.57;;
19887;SDS011;10106;51.332;12.336;2023-03-01T22:15:41;7.70;;;4.03;;
19887;SDS011;10106;51.332;12.336;2023-03-01T22:18:09;6.43;;;3.87;;
19887;SDS011;10106;51.332;12.336;2023-03-01T22:20:35;8.40;;;4.90;;
19887;SDS011;10106;51.332;12.336;2023-03-01T22:23:01;7.17;;;3.50;;
19887;SDS011;10106;51.332;12.336;2023-03-01T22:25:27;6.57;;;3.73;;
19887;SDS011;10106;51.332;12.336;2023-03-01T22:27:52;14.47;;;5.70;;
19887;SDS011;10106;51.332;12.336;2023-03-01T22:30:18;9.00;;;3.93;;
19887;SDS011;10106;51.332;12.336;2023-03-01T22:32:44;7.60;;;4.47;;
19887;SDS011;10106;51.332;12.336;2023-03-01T22:35:10;7.73;;;3.73;;
19887;SDS011;10106;51.332;12.336;2023-03-01T22:37:36;13.10;;;5.10;;
19887;SDS011;10106;51.332;12.336;2023-03-01T22:40:03;7.40;;;3.87;;
19887;SDS011;10106;51.332;12.336;2023-03-01T22:42:29;8.87;;;3.90;;
19887;SDS011;10106;51.332;12.336;2023-03-01T22:44:55;10.37;;;3.80;;
19887;SDS011;10106;51.332;12.336;2023-03-01T22:47:21;4.03;;;3.30;;
19887;SDS011;10106;51.332;12.336;2023-03-01T22:49:46;10.73;;;4.53;;
19887;SDS011;10106;51.332;12.336;2023-03-01T22:52:12;5.20;;;3.70;;
19887;SDS011;10106;51.332;12.336;2023-03-01T22:54:38;7.07;;;4.90;;
19887;SDS011;10106;51.332;12.336;2023-03-01T22:57:05;13.60;;;4.73;;
19887;SDS011;10106;51.332;12.336;2023-03-01T22:59:31;11.97;;;4.40;;
19887;SDS011;10106;51.332;12.336;2023-03-01T23:01:56;8.53;;;3.93;;
19887;SDS011;10106;51.332;12.336;2023-03-01T23:04:22;6.10;;;3.73;;
19887;SDS011;10106;51.332;12.336;2023-03-01T23:06:48;5.73;;;3.90;;
19887;SDS011;10106;51.332;12.336;2023-03-01T23:12:04;9.07;;;3.10;;
19887;SDS011;10106;51.332;12.336;2023-03-01T23:14:33;8.40;;;4.50;;
19887;SDS011;10106;51.332;12.336;2023-03-01T23:16:59;8.90;;;4.97;;
19887;SDS011;10106;51.332;12.336;2023-03-01T23:19:26;6.20;;;4.67;;
19887;SDS011;10106;51.332;12.336;2023-03-01T23:21:52;7.57;;;4.53;;
19887;SDS011;10106;51.332;12.336;2023-03-01T23:24:19;9.50;;;4.13;;
19887;SDS011;10106;51.332;12.336;2023-03-01T23:26:47;7.00;;;3.63;;
19887;SDS011;10106;51.332;12.336;2023-03-01T23:29:20;10.93;;;4.63;;
19887;SDS011;10106;51.332;12.336;2023-03-01T23:31:46;11.43;;;3.83;;